createdAt,value
2023-03-10T00:00:20.896Z,1.00
2023-03-10T00:01:33.037Z,1.00
2023-03-10T00:02:35.535Z,1.00
2023-03-10T00:03:37.432Z,1.00
2023-03-10T00:04:39.274Z,1.00
2023-03-10T00:05:41.174Z,1.00
2023-03-10T00:06:43.119Z,1.00
2023-03-10T00:07:46.094Z,1.00
2023-03-10T00:08:48.586Z,1.00
2023-03-10T00:09:50.688Z,1.00
2023-03-10T00:10:52.497Z,1.00
2023-03-10T00:11:54.340Z,1.00
2023-03-10T00:12:56.108Z,1.00
2023-03-10T00:13:57.970Z,1.00
2023-03-10T00:14:59.866Z,1.00
2023-03-10T00:16:01.791Z,1.00
2023-03-10T00:17:04.035Z,1.00
2023-03-10T00:18:05.961Z,1.00
2023-03-10T00:19:08.029Z,1.00
2023-03-10T00:20:12.467Z,1.00
2023-03-10T00:21:15.823Z,1.00
2023-03-10T00:22:17.775Z,1.00
2023-03-10T00:23:19.968Z,1.00
2023-03-10T00:24:21.891Z,1.00
2023-03-10T00:25:23.776Z,1.00
2023-03-10T00:26:28.050Z,1.00
2023-03-10T00:27:30.014Z,1.00
2023-03-10T00:28:32.125Z,1.00
2023-03-10T00:29:33.977Z,1.00
2023-03-10T00:30:35.824Z,1.00
2023-03-10T00:31:38.547Z,1.00
2023-03-10T00:32:40.598Z,1.00
2023-03-10T00:33:42.815Z,1.00
2023-03-10T00:34:44.726Z,1.00
2023-03-10T00:35:46.551Z,1.00
2023-03-10T00:36:48.342Z,1.00
2023-03-10T00:37:50.167Z,1.00
2023-03-10T00:38:52.981Z,1.00
2023-03-10T00:39:55.698Z,1.00
2023-03-10T00:41:01.655Z,1.00
2023-03-10T00:42:03.586Z,1.00
2023-03-10T00:43:05.368Z,1.00
2023-03-10T00:44:09.510Z,1.00
2023-03-10T00:45:11.628Z,1.00
2023-03-10T00:46:13.918Z,1.00
2023-03-10T00:47:16.114Z,1.00
2023-03-10T00:48:17.956Z,1.00
2023-03-10T00:49:19.853Z,1.00
2023-03-10T00:50:21.614Z,1.00
2023-03-10T00:51:23.450Z,1.00
2023-03-10T00:52:25.325Z,1.00
2023-03-10T00:53:27.202Z,1.00
2023-03-10T00:54:28.957Z,1.00
2023-03-10T00:55:30.781Z,1.00
2023-03-10T00:56:32.650Z,1.00
2023-03-10T00:57:35.665Z,1.00
2023-03-10T00:58:37.977Z,1.00
2023-03-10T00:59:49.895Z,1.00
2023-03-10T01:00:52.628Z,1.00
2023-03-10T01:01:54.698Z,1.00
2023-03-10T01:02:56.707Z,1.00
2023-03-10T01:04:04.807Z,1.00
2023-03-10T01:05:06.780Z,1.00
2023-03-10T01:06:09.014Z,1.00
2023-03-10T01:07:10.778Z,1.00
2023-03-10T01:08:13.273Z,1.00
2023-03-10T01:09:15.260Z,1.00
2023-03-10T01:10:18.171Z,1.00
2023-03-10T01:11:22.865Z,1.00
2023-03-10T01:12:24.649Z,1.00
2023-03-10T01:13:26.415Z,1.00
2023-03-10T01:14:28.299Z,1.00
2023-03-10T01:15:30.146Z,1.00
2023-03-10T01:16:32.303Z,1.00
2023-03-10T01:17:34.077Z,1.00
2023-03-10T01:18:36.301Z,1.00
2023-03-10T01:19:38.067Z,1.00
2023-03-10T01:20:41.800Z,1.00
2023-03-10T01:21:44.609Z,1.00
2023-03-10T01:22:46.385Z,1.00
2023-03-10T01:23:48.568Z,1.00
2023-03-10T01:24:50.477Z,1.00
2023-03-10T01:25:53.047Z,1.00
2023-03-10T01:26:54.921Z,1.00
2023-03-10T01:27:56.791Z,1.00
2023-03-10T01:28:59.072Z,1.00
2023-03-10T01:30:00.925Z,1.00
2023-03-10T01:31:05.005Z,1.00
2023-03-10T01:32:07.167Z,1.00
2023-03-10T01:33:10.454Z,1.00
2023-03-10T01:34:12.254Z,1.00
2023-03-10T01:35:14.032Z,1.00
2023-03-10T01:36:19.124Z,1.00
2023-03-10T01:37:21.442Z,1.00
2023-03-10T01:38:23.736Z,1.00
2023-03-10T01:39:25.556Z,1.00
2023-03-10T01:40:27.564Z,1.00
2023-03-10T01:41:29.445Z,1.00
2023-03-10T01:42:32.104Z,1.00
2023-03-10T01:43:34.650Z,1.00
2023-03-10T01:44:36.530Z,1.00
2023-03-10T01:45:38.313Z,1.00
2023-03-10T01:46:43.083Z,1.00
2023-03-10T01:47:45.401Z,1.00
2023-03-10T01:48:47.208Z,1.00
2023-03-10T01:49:49.073Z,2.00
2023-03-10T01:50:54.179Z,2.00
2023-03-10T01:52:01.577Z,2.00
2023-03-10T01:53:03.677Z,2.00
2023-03-10T01:54:10.145Z,2.00
2023-03-10T01:55:17.763Z,2.00
2023-03-10T01:56:20.182Z,2.00
2023-03-10T01:57:27.874Z,2.00
2023-03-10T01:58:35.421Z,2.00
2023-03-10T01:59:37.204Z,2.00
2023-03-10T02:00:40.910Z,2.00
2023-03-10T02:01:42.970Z,2.00
2023-03-10T02:03:24.964Z,2.00
2023-03-10T02:04:39.292Z,2.00
2023-03-10T02:06:02.944Z,2.00
2023-03-10T02:07:06.451Z,2.00
2023-03-10T02:08:10.134Z,2.00
2023-03-10T02:09:12.482Z,2.00
2023-03-10T02:10:15.443Z,2.00
2023-03-10T02:11:17.643Z,2.00
2023-03-10T02:12:20.612Z,2.00
2023-03-10T02:13:22.756Z,2.00
2023-03-10T02:14:24.631Z,2.00
2023-03-10T02:15:26.553Z,2.00
2023-03-10T02:16:28.475Z,2.00
2023-03-10T02:17:30.655Z,2.00
2023-03-10T02:18:32.661Z,2.00
2023-03-10T02:19:40.579Z,2.00
2023-03-10T02:21:06.969Z,2.00
2023-03-10T02:22:10.976Z,2.00
2023-03-10T02:23:23.181Z,2.00
2023-03-10T02:24:35.274Z,2.00
2023-03-10T02:25:49.868Z,2.00
2023-03-10T02:27:13.709Z,2.00
2023-03-10T02:28:16.093Z,2.00
2023-03-10T02:29:30.555Z,2.00
2023-03-10T02:30:36.477Z,2.00
2023-03-10T02:31:38.850Z,2.00
2023-03-10T02:32:45.011Z,2.00
2023-03-10T02:33:47.073Z,2.00
2023-03-10T02:34:49.110Z,2.00
2023-03-10T02:35:51.098Z,2.00
2023-03-10T02:36:53.600Z,2.00
2023-03-10T02:37:55.488Z,2.00
2023-03-10T02:38:57.309Z,2.00
2023-03-10T02:39:59.856Z,2.00
2023-03-10T02:41:02.137Z,2.00
2023-03-10T02:42:04.314Z,2.00
2023-03-10T02:43:27.018Z,2.00
2023-03-10T02:44:29.055Z,2.00
2023-03-10T02:45:33.641Z,2.00
2023-03-10T02:46:35.735Z,2.00
2023-03-10T02:47:37.485Z,2.00
2023-03-10T02:48:40.032Z,2.00
2023-03-10T02:49:42.596Z,2.00
2023-03-10T02:50:49.969Z,2.00
2023-03-10T02:51:51.842Z,2.00
2023-03-10T02:53:04.137Z,2.00
2023-03-10T02:54:08.239Z,2.00
2023-03-10T02:55:15.634Z,2.00
2023-03-10T02:56:17.638Z,2.00
2023-03-10T02:57:19.506Z,2.00
2023-03-10T02:58:24.934Z,2.00
2023-03-10T02:59:26.766Z,2.00
2023-03-10T03:00:29.664Z,2.00
2023-03-10T03:01:32.110Z,2.00
2023-03-10T03:02:34.351Z,2.00
2023-03-10T03:03:36.302Z,2.00
2023-03-10T03:04:38.101Z,2.00
2023-03-10T03:05:39.970Z,2.00
2023-03-10T03:06:41.848Z,2.00
2023-03-10T03:07:43.705Z,2.00
2023-03-10T03:08:47.980Z,2.00
2023-03-10T03:09:49.916Z,2.00
2023-03-10T03:10:52.628Z,2.00
2023-03-10T03:11:54.454Z,2.00
2023-03-10T03:12:56.723Z,2.00
2023-03-10T03:13:58.477Z,2.00
2023-03-10T03:15:00.309Z,2.00
2023-03-10T03:16:02.325Z,2.00
2023-03-10T03:17:04.129Z,2.00
2023-03-10T03:18:06.274Z,2.00
2023-03-10T03:19:08.309Z,2.00
2023-03-10T03:20:14.418Z,2.00
2023-03-10T03:21:17.539Z,2.00
2023-03-10T03:22:19.305Z,2.00
2023-03-10T03:23:21.291Z,2.00
2023-03-10T03:24:23.181Z,2.00
2023-03-10T03:25:28.319Z,2.00
2023-03-10T03:26:30.134Z,2.00
2023-03-10T03:27:32.140Z,2.00
2023-03-10T03:28:34.273Z,2.00
2023-03-10T03:29:36.167Z,2.00
2023-03-10T03:30:38.744Z,2.00
2023-03-10T03:31:41.108Z,2.00
2023-03-10T03:32:43.416Z,2.00
2023-03-10T03:33:45.829Z,2.00
2023-03-10T03:34:48.030Z,2.00
2023-03-10T03:35:50.055Z,2.00
2023-03-10T03:36:52.224Z,2.00
2023-03-10T03:37:54.824Z,2.00
2023-03-10T03:38:56.672Z,2.00
2023-03-10T03:39:59.143Z,2.00
2023-03-10T03:41:01.124Z,2.00
2023-03-10T03:42:03.146Z,2.00
2023-03-10T03:43:05.599Z,2.00
2023-03-10T03:44:07.554Z,2.00
2023-03-10T03:45:11.296Z,2.00
2023-03-10T03:46:13.197Z,2.00
2023-03-10T03:47:15.131Z,2.00
2023-03-10T03:48:16.984Z,2.00
2023-03-10T03:49:18.848Z,2.00
2023-03-10T03:50:21.564Z,2.00
2023-03-10T03:51:23.423Z,2.00
2023-03-10T03:52:25.297Z,2.00
2023-03-10T03:53:27.124Z,2.00
2023-03-10T03:54:29.005Z,2.00
2023-03-10T03:55:31.382Z,2.00
2023-03-10T03:56:33.166Z,2.00
2023-03-10T03:57:35.845Z,2.00
2023-03-10T03:58:37.729Z,2.00
2023-03-10T03:59:39.469Z,2.00
2023-03-10T04:00:41.416Z,2.00
2023-03-10T04:01:43.220Z,2.00
2023-03-10T04:02:45.154Z,2.00
2023-03-10T04:03:47.190Z,2.00
2023-03-10T04:04:49.144Z,2.00
2023-03-10T04:05:50.974Z,2.00
2023-03-10T04:06:52.804Z,2.00
2023-03-10T04:07:54.619Z,2.00
2023-03-10T04:08:56.374Z,2.00
2023-03-10T04:09:58.465Z,2.00
2023-03-10T04:11:00.190Z,2.00
2023-03-10T04:12:02.041Z,2.00
2023-03-10T04:13:04.175Z,2.00
2023-03-10T04:14:06.365Z,2.00
2023-03-10T04:15:08.660Z,2.00
2023-03-10T04:16:10.551Z,2.00
2023-03-10T04:17:12.411Z,2.00
2023-03-10T04:18:14.599Z,2.00
2023-03-10T04:19:16.466Z,2.00
2023-03-10T04:20:18.602Z,2.00
2023-03-10T04:21:20.436Z,2.00
2023-03-10T04:22:22.221Z,2.00
2023-03-10T04:23:24.093Z,2.00
2023-03-10T04:24:26.154Z,2.00
2023-03-10T04:25:28.104Z,2.33
2023-03-10T04:26:30.319Z,3.00
2023-03-10T04:27:32.333Z,3.00
2023-03-10T04:28:34.901Z,3.00
2023-03-10T04:29:37.804Z,3.00
2023-03-10T04:30:42.778Z,3.00
2023-03-10T04:31:50.561Z,3.00
2023-03-10T04:33:01.490Z,3.00
2023-03-10T04:34:03.674Z,3.00
2023-03-10T04:35:06.658Z,3.00
2023-03-10T04:36:08.826Z,3.00
2023-03-10T04:37:10.706Z,3.00
2023-03-10T04:38:13.498Z,3.00
2023-03-10T04:39:15.303Z,3.00
2023-03-10T04:40:17.301Z,3.00
2023-03-10T04:41:19.201Z,3.00
2023-03-10T04:42:21.831Z,3.00
2023-03-10T04:43:23.582Z,3.00
2023-03-10T04:44:30.803Z,3.00
2023-03-10T04:45:33.223Z,3.00
2023-03-10T04:46:35.476Z,3.00
2023-03-10T04:47:38.040Z,3.00
2023-03-10T04:48:40.101Z,3.00
2023-03-10T04:49:42.103Z,3.00
2023-03-10T04:50:44.066Z,3.00
2023-03-10T04:51:45.979Z,3.00
2023-03-10T04:52:50.033Z,3.00
2023-03-10T04:53:52.010Z,3.00
2023-03-10T04:54:54.026Z,3.00
2023-03-10T04:55:55.969Z,3.00
2023-03-10T04:56:57.809Z,3.00
2023-03-10T04:57:59.628Z,3.00
2023-03-10T04:59:01.935Z,3.00
2023-03-10T05:00:08.052Z,3.00
2023-03-10T05:01:14.184Z,3.00
2023-03-10T05:02:16.133Z,3.00
2023-03-10T05:03:18.100Z,3.00
2023-03-10T05:04:19.980Z,3.00
2023-03-10T05:05:21.864Z,3.00
2023-03-10T05:06:23.699Z,3.00
2023-03-10T05:07:25.583Z,3.00
2023-03-10T05:08:27.492Z,3.00
2023-03-10T05:09:29.456Z,2.17
2023-03-10T05:10:31.284Z,2.00
2023-03-10T05:11:33.147Z,2.00
2023-03-10T05:12:35.035Z,2.00
2023-03-10T05:13:37.137Z,2.00
2023-03-10T05:14:39.064Z,2.00
2023-03-10T05:15:41.564Z,2.00
2023-03-10T05:16:43.478Z,2.00
2023-03-10T05:17:46.230Z,2.00
2023-03-10T05:18:49.570Z,2.00
2023-03-10T05:19:51.370Z,2.00
2023-03-10T05:20:54.641Z,2.00
2023-03-10T05:21:56.588Z,2.00
2023-03-10T05:22:58.410Z,2.00
2023-03-10T05:24:00.415Z,3.00
2023-03-10T05:25:02.344Z,3.00
2023-03-10T05:26:05.956Z,3.00
2023-03-10T05:27:08.761Z,3.00
2023-03-10T05:28:10.621Z,3.00
2023-03-10T05:29:12.716Z,3.00
2023-03-10T05:30:16.018Z,3.00
2023-03-10T05:31:18.083Z,3.00
2023-03-10T05:32:19.971Z,3.00
2023-03-10T05:33:21.763Z,3.00
2023-03-10T05:34:25.384Z,3.00
2023-03-10T05:35:27.186Z,3.00
2023-03-10T05:36:29.122Z,3.00
2023-03-10T05:37:30.989Z,3.00
2023-03-10T05:38:32.977Z,3.00
2023-03-10T05:39:34.925Z,3.00
2023-03-10T05:40:36.767Z,3.00
2023-03-10T05:41:38.741Z,3.00
2023-03-10T05:42:40.563Z,3.00
2023-03-10T05:43:42.443Z,3.00
2023-03-10T05:44:44.297Z,3.00
2023-03-10T05:45:46.191Z,3.00
2023-03-10T05:46:48.058Z,3.00
2023-03-10T05:47:49.914Z,3.00
2023-03-10T05:48:51.746Z,3.00
2023-03-10T05:49:53.599Z,3.00
2023-03-10T05:50:59.393Z,3.00
2023-03-10T05:52:01.276Z,3.00
2023-03-10T05:53:03.138Z,3.00
2023-03-10T05:54:06.336Z,3.00
2023-03-10T05:55:13.303Z,3.00
2023-03-10T05:56:18.065Z,3.00
2023-03-10T05:57:19.866Z,3.00
2023-03-10T05:58:22.194Z,3.00
2023-03-10T05:59:24.116Z,3.00
2023-03-10T06:00:26.301Z,2.67
2023-03-10T06:01:28.225Z,2.00
2023-03-10T06:02:30.106Z,2.00
2023-03-10T06:03:32.103Z,2.00
2023-03-10T06:04:34.058Z,2.00
2023-03-10T06:05:35.916Z,2.00
2023-03-10T06:06:38.489Z,2.00
2023-03-10T06:07:40.932Z,2.00
2023-03-10T06:08:43.167Z,2.00
2023-03-10T06:09:44.994Z,2.00
2023-03-10T06:10:46.870Z,2.00
2023-03-10T06:11:48.760Z,2.00
2023-03-10T06:12:50.645Z,2.00
2023-03-10T06:13:52.691Z,2.00
2023-03-10T06:14:54.524Z,2.00
2023-03-10T06:15:59.303Z,2.00
2023-03-10T06:17:01.603Z,2.00
2023-03-10T06:18:03.553Z,2.00
2023-03-10T06:19:05.411Z,2.00
2023-03-10T06:20:07.489Z,2.00
2023-03-10T06:21:12.939Z,2.00
2023-03-10T06:22:14.859Z,2.00
2023-03-10T06:23:17.938Z,2.00
2023-03-10T06:24:19.757Z,2.00
2023-03-10T06:25:21.583Z,2.00
2023-03-10T06:26:24.367Z,2.00
2023-03-10T06:27:26.358Z,2.00
2023-03-10T06:28:33.060Z,2.00
2023-03-10T06:29:35.338Z,2.00
2023-03-10T06:30:37.131Z,2.00
2023-03-10T06:31:39.005Z,2.00
2023-03-10T06:32:41.166Z,2.00
2023-03-10T06:33:43.117Z,2.00
2023-03-10T06:34:44.950Z,2.00
2023-03-10T06:35:46.775Z,2.00
2023-03-10T06:36:48.678Z,2.00
2023-03-10T06:37:50.621Z,2.00
2023-03-10T06:38:53.699Z,2.00
2023-03-10T06:39:55.586Z,2.00
2023-03-10T06:40:58.088Z,2.00
2023-03-10T06:42:01.159Z,2.00
2023-03-10T06:43:03.015Z,2.00
2023-03-10T06:44:05.042Z,2.00
2023-03-10T06:45:08.600Z,2.00
2023-03-10T06:46:11.877Z,2.00
2023-03-10T06:47:13.754Z,2.00
2023-03-10T06:48:16.074Z,2.00
2023-03-10T06:49:18.058Z,2.00
2023-03-10T06:50:19.904Z,2.00
2023-03-10T06:51:23.231Z,2.00
2023-03-10T06:52:25.082Z,2.00
2023-03-10T06:53:29.899Z,2.00
2023-03-10T06:54:31.739Z,2.00
2023-03-10T06:55:33.532Z,2.00
2023-03-10T06:56:35.783Z,2.00
2023-03-10T06:57:37.976Z,2.00
2023-03-10T06:58:40.676Z,2.00
2023-03-10T06:59:43.137Z,2.00
2023-03-10T07:00:44.977Z,2.00
2023-03-10T07:01:46.814Z,2.00
2023-03-10T07:02:48.750Z,2.00
2023-03-10T07:03:50.639Z,1.33
2023-03-10T07:04:52.644Z,1.00
2023-03-10T07:06:00.645Z,1.00
2023-03-10T07:07:02.509Z,1.00
2023-03-10T07:08:04.510Z,1.00
2023-03-10T07:09:06.379Z,1.00
2023-03-10T07:10:09.019Z,1.00
2023-03-10T07:11:14.589Z,1.00
2023-03-10T07:12:19.851Z,1.00
2023-03-10T07:13:24.405Z,1.00
2023-03-10T07:14:28.591Z,1.00
2023-03-10T07:15:30.476Z,1.00
2023-03-10T07:16:32.676Z,1.00
2023-03-10T07:17:34.907Z,1.00
2023-03-10T07:18:36.924Z,1.00
2023-03-10T07:19:38.977Z,1.00
2023-03-10T07:20:42.704Z,1.00
2023-03-10T07:21:46.758Z,1.00
2023-03-10T07:22:48.955Z,1.00
2023-03-10T07:23:53.783Z,1.00
2023-03-10T07:24:56.490Z,1.00
2023-03-10T07:25:58.438Z,1.00
2023-03-10T07:27:01.184Z,1.00
2023-03-10T07:28:07.487Z,1.00
2023-03-10T07:29:09.474Z,1.00
2023-03-10T07:30:11.908Z,1.00
2023-03-10T07:31:14.758Z,1.00
2023-03-10T07:32:17.421Z,1.00
2023-03-10T07:33:19.586Z,1.00
2023-03-10T07:34:21.697Z,1.00
2023-03-10T07:35:26.655Z,1.00
2023-03-10T07:36:29.272Z,1.00
2023-03-10T07:37:31.281Z,1.00
2023-03-10T07:38:33.376Z,1.00
2023-03-10T07:39:35.355Z,1.00
2023-03-10T07:40:39.613Z,1.00
2023-03-10T07:41:41.667Z,1.00
2023-03-10T07:42:44.057Z,1.00
2023-03-10T07:43:46.283Z,1.00
2023-03-10T07:44:50.683Z,1.00
2023-03-10T07:45:55.264Z,1.00
2023-03-10T07:46:57.881Z,1.00
2023-03-10T07:47:59.754Z,1.00
2023-03-10T07:49:04.444Z,1.00
2023-03-10T07:50:06.763Z,1.00
2023-03-10T07:51:09.409Z,1.00
2023-03-10T07:52:11.424Z,1.00
2023-03-10T07:53:13.350Z,1.00
2023-03-10T07:54:17.748Z,1.00
2023-03-10T07:55:19.627Z,1.00
2023-03-10T07:56:21.647Z,1.00
2023-03-10T07:57:23.511Z,1.00
2023-03-10T07:58:25.774Z,1.00
2023-03-10T07:59:27.815Z,1.00
2023-03-10T08:00:30.155Z,1.00
2023-03-10T08:01:32.058Z,1.00
2023-03-10T08:02:34.323Z,1.00
2023-03-10T08:03:36.305Z,1.00
2023-03-10T08:04:38.451Z,1.00
2023-03-10T08:05:45.724Z,1.00
2023-03-10T08:06:47.843Z,1.00
2023-03-10T08:07:49.774Z,1.00
2023-03-10T08:08:55.169Z,1.00
2023-03-10T08:09:57.288Z,1.00
2023-03-10T08:11:05.697Z,1.00
2023-03-10T08:12:08.153Z,1.00
2023-03-10T08:13:19.069Z,1.00
2023-03-10T08:14:26.440Z,1.00
2023-03-10T08:15:31.269Z,1.00
2023-03-10T08:16:33.256Z,1.00
2023-03-10T08:17:35.905Z,1.00
2023-03-10T08:18:39.267Z,1.00
2023-03-10T08:19:41.220Z,1.00
2023-03-10T08:20:52.314Z,1.00
2023-03-10T08:21:56.114Z,1.00
2023-03-10T08:23:00.257Z,1.00
2023-03-10T08:24:02.165Z,1.00
2023-03-10T08:25:05.024Z,1.00
2023-03-10T08:26:09.497Z,1.00
2023-03-10T08:27:12.809Z,1.00
2023-03-10T08:28:14.723Z,1.00
2023-03-10T08:29:16.915Z,1.00
2023-03-10T08:30:20.551Z,1.00
2023-03-10T08:31:23.179Z,1.00
2023-03-10T08:32:27.635Z,1.00
2023-03-10T08:33:30.833Z,1.00
2023-03-10T08:34:34.471Z,1.00
2023-03-10T08:35:37.302Z,1.00
2023-03-10T08:36:40.224Z,1.00
2023-03-10T08:37:43.331Z,1.00
2023-03-10T08:38:46.552Z,1.00
2023-03-10T08:39:50.068Z,1.00
2023-03-10T08:40:52.201Z,1.00
2023-03-10T08:41:55.114Z,1.00
2023-03-10T08:42:57.441Z,1.00
2023-03-10T08:44:00.286Z,1.00
2023-03-10T08:45:03.653Z,1.00
2023-03-10T08:46:08.593Z,1.00
2023-03-10T08:47:12.151Z,1.00
2023-03-10T08:48:15.981Z,1.00
2023-03-10T08:49:20.261Z,1.00
2023-03-10T08:50:22.203Z,1.00
2023-03-10T08:51:24.540Z,1.00
2023-03-10T08:52:26.884Z,1.00
2023-03-10T08:53:28.805Z,1.00
2023-03-10T08:54:32.630Z,1.00
2023-03-10T08:55:34.642Z,1.00
2023-03-10T08:56:36.935Z,1.00
2023-03-10T08:57:38.846Z,1.00
2023-03-10T08:58:40.750Z,1.00
2023-03-10T08:59:42.694Z,1.00
2023-03-10T09:00:45.053Z,1.00
2023-03-10T09:01:47.390Z,1.00
2023-03-10T09:02:49.321Z,1.00
2023-03-10T09:03:51.299Z,1.00
2023-03-10T09:04:53.419Z,1.00
2023-03-10T09:05:55.568Z,1.00
2023-03-10T09:06:58.248Z,1.00
2023-03-10T09:08:00.162Z,1.00
2023-03-10T09:09:03.024Z,1.00
2023-03-10T09:10:05.421Z,1.00
2023-03-10T09:11:08.828Z,1.00
2023-03-10T09:12:11.544Z,1.00
2023-03-10T09:13:18.174Z,1.00
2023-03-10T09:14:20.657Z,1.00
2023-03-10T09:15:22.851Z,1.00
2023-03-10T09:16:25.200Z,1.00
2023-03-10T09:17:27.258Z,1.00
2023-03-10T09:18:29.297Z,1.00
2023-03-10T09:19:31.267Z,1.00
2023-03-10T09:20:33.146Z,1.00
2023-03-10T09:21:41.183Z,1.00
2023-03-10T09:22:43.381Z,1.00
2023-03-10T09:23:48.373Z,1.00
2023-03-10T09:24:50.215Z,1.00
2023-03-10T09:25:52.120Z,1.00
2023-03-10T09:26:55.929Z,1.00
2023-03-10T09:27:58.499Z,1.00
2023-03-10T09:29:01.327Z,1.00
2023-03-10T09:30:03.477Z,1.00
2023-03-10T09:31:09.068Z,1.00
2023-03-10T09:32:11.173Z,1.00
2023-03-10T09:33:21.230Z,1.00
2023-03-10T09:34:24.506Z,1.00
2023-03-10T09:35:29.290Z,1.00
2023-03-10T09:36:31.998Z,1.00
2023-03-10T09:37:44.141Z,1.00
2023-03-10T09:38:48.569Z,1.00
2023-03-10T09:39:50.525Z,1.00
2023-03-10T09:41:15.622Z,1.00
2023-03-10T09:42:38.062Z,1.00
2023-03-10T09:43:50.765Z,1.00
2023-03-10T09:45:08.275Z,1.00
2023-03-10T09:46:35.922Z,1.00
2023-03-10T09:47:50.148Z,1.00
2023-03-10T09:49:10.125Z,1.00
2023-03-10T09:50:24.279Z,1.00
2023-03-10T09:51:28.938Z,1.00
2023-03-10T09:52:45.562Z,1.00
2023-03-10T09:53:58.873Z,1.00
2023-03-10T09:55:06.555Z,1.00
2023-03-10T09:56:15.911Z,1.00
2023-03-10T09:57:21.528Z,1.00
2023-03-10T09:58:33.985Z,1.00
2023-03-10T09:59:39.317Z,1.00
2023-03-10T10:00:43.572Z,1.00
2023-03-10T10:01:48.197Z,1.00
2023-03-10T10:02:52.089Z,1.00
2023-03-10T10:04:01.602Z,1.00
2023-03-10T10:05:20.160Z,1.00
2023-03-10T10:06:32.765Z,1.00
2023-03-10T10:07:44.259Z,1.00
2023-03-10T10:09:03.601Z,1.00
2023-03-10T10:10:14.570Z,1.00
2023-03-10T10:11:18.023Z,1.00
2023-03-10T10:12:25.001Z,1.00
2023-03-10T10:13:30.659Z,1.00
2023-03-10T10:14:33.282Z,1.33
2023-03-10T10:15:37.293Z,2.00
2023-03-10T10:16:49.350Z,2.00
2023-03-10T10:18:02.629Z,2.00
2023-03-10T10:19:28.818Z,2.00
2023-03-10T10:20:39.492Z,2.00
2023-03-10T10:21:55.665Z,2.00
2023-03-10T10:22:57.477Z,2.00
2023-03-10T10:23:59.438Z,2.00
2023-03-10T10:25:18.084Z,2.00
2023-03-10T10:26:27.391Z,2.00
2023-03-10T10:27:31.717Z,2.00
2023-03-10T10:28:42.075Z,2.00
2023-03-10T10:29:47.112Z,2.00
2023-03-10T10:30:49.568Z,2.00
2023-03-10T10:32:08.780Z,2.00
2023-03-10T10:33:12.747Z,2.00
2023-03-10T10:34:23.686Z,2.00
2023-03-10T10:35:28.055Z,2.00
2023-03-10T10:36:40.071Z,2.00
2023-03-10T10:37:43.116Z,2.00
2023-03-10T10:38:53.930Z,2.00
2023-03-10T10:39:57.463Z,2.00
2023-03-10T10:41:07.469Z,2.00
2023-03-10T10:42:30.419Z,2.00
2023-03-10T10:43:41.295Z,2.00
2023-03-10T10:44:44.959Z,2.00
2023-03-10T10:45:58.252Z,2.00
2023-03-10T10:47:00.180Z,2.00
2023-03-10T10:48:02.642Z,2.00
2023-03-10T10:49:25.003Z,2.00
2023-03-10T10:50:29.836Z,2.00
2023-03-10T10:51:35.922Z,2.00
2023-03-10T10:52:38.084Z,2.00
2023-03-10T10:53:42.399Z,2.00
2023-03-10T10:54:56.302Z,2.00
2023-03-10T10:56:17.669Z,2.00
2023-03-10T10:57:21.602Z,2.00
2023-03-10T10:58:35.098Z,2.00
2023-03-10T10:59:37.090Z,2.00
2023-03-10T11:00:39.389Z,2.00
2023-03-10T11:01:52.109Z,2.00
2023-03-10T11:02:54.353Z,2.00
2023-03-10T11:04:17.099Z,2.00
2023-03-10T11:05:22.422Z,2.00
2023-03-10T11:06:27.259Z,2.00
2023-03-10T11:07:29.044Z,2.00
2023-03-10T11:08:35.082Z,2.00
2023-03-10T11:09:37.137Z,2.00
2023-03-10T11:10:40.846Z,2.00
2023-03-10T11:11:57.533Z,2.00
2023-03-10T11:13:21.061Z,2.00
2023-03-10T11:14:31.511Z,2.00
2023-03-10T11:15:37.732Z,2.00
2023-03-10T11:16:50.805Z,2.00
2023-03-10T11:18:18.864Z,2.00
2023-03-10T11:19:55.024Z,2.00
2023-03-10T11:21:23.940Z,2.00
2023-03-10T11:22:41.885Z,2.00
2023-03-10T11:23:58.107Z,2.00
2023-03-10T11:25:05.478Z,1.67
2023-03-10T11:26:16.234Z,1.00
2023-03-10T11:27:50.298Z,1.00
2023-03-10T11:29:14.002Z,1.00
2023-03-10T11:30:29.747Z,1.00
2023-03-10T11:31:55.750Z,1.00
2023-03-10T11:33:11.296Z,1.00
2023-03-10T11:34:23.423Z,1.00
2023-03-10T11:35:38.144Z,1.00
2023-03-10T11:37:17.052Z,1.00
2023-03-10T11:38:38.475Z,1.00
2023-03-10T11:40:15.093Z,1.00
2023-03-10T11:41:22.528Z,1.00
2023-03-10T11:42:43.237Z,1.00
2023-03-10T11:44:03.490Z,1.00
2023-03-10T11:45:44.236Z,1.00
2023-03-10T11:47:20.804Z,1.00
2023-03-10T11:48:41.714Z,1.00
2023-03-10T11:49:47.388Z,1.00
2023-03-10T11:50:56.274Z,1.00
2023-03-10T11:52:05.506Z,1.00
2023-03-10T11:53:19.581Z,1.00
2023-03-10T11:54:29.089Z,1.00
2023-03-10T11:55:32.106Z,1.00
2023-03-10T11:56:33.989Z,1.00
2023-03-10T11:57:44.740Z,1.00
2023-03-10T11:58:52.167Z,1.00
2023-03-10T11:59:59.929Z,1.00
2023-03-10T12:01:02.195Z,1.00
2023-03-10T12:02:24.673Z,1.00
2023-03-10T12:03:48.573Z,1.00
2023-03-10T12:04:59.870Z,1.00
2023-03-10T12:06:03.215Z,1.17
2023-03-10T12:07:13.417Z,2.00
2023-03-10T12:08:16.851Z,2.00
2023-03-10T12:09:30.159Z,2.00
2023-03-10T12:10:37.423Z,2.00
2023-03-10T12:11:39.616Z,2.00
2023-03-10T12:12:46.854Z,2.00
2023-03-10T12:13:52.788Z,2.00
2023-03-10T12:14:55.389Z,2.00
2023-03-10T12:16:00.010Z,2.00
2023-03-10T12:17:04.234Z,2.00
2023-03-10T12:18:07.501Z,2.00
2023-03-10T12:19:09.470Z,2.00
2023-03-10T12:20:14.162Z,2.00
2023-03-10T12:21:16.177Z,2.00
2023-03-10T12:22:20.693Z,2.00
2023-03-10T12:23:22.535Z,2.00
2023-03-10T12:24:46.817Z,2.00
2023-03-10T12:25:48.995Z,1.67
2023-03-10T12:26:59.945Z,1.33
2023-03-10T12:28:17.061Z,1.00
2023-03-10T12:29:23.049Z,1.00
2023-03-10T12:30:43.532Z,1.00
2023-03-10T12:31:47.306Z,1.33
2023-03-10T12:32:49.237Z,2.00
2023-03-10T12:33:52.464Z,2.00
2023-03-10T12:35:28.388Z,1.50
2023-03-10T12:36:32.549Z,1.00
2023-03-10T12:37:34.433Z,1.00
2023-03-10T12:38:46.143Z,1.00
2023-03-10T12:39:48.129Z,1.00
2023-03-10T12:40:51.526Z,1.00
2023-03-10T12:41:55.270Z,1.00
2023-03-10T12:42:57.226Z,1.00
2023-03-10T12:44:00.278Z,1.00
2023-03-10T12:45:17.420Z,1.00
2023-03-10T12:46:23.573Z,1.00
2023-03-10T12:47:26.440Z,1.00
2023-03-10T12:48:28.792Z,1.00
2023-03-10T12:49:39.032Z,1.00
2023-03-10T12:51:05.042Z,1.00
2023-03-10T12:52:06.875Z,1.00
2023-03-10T12:53:11.681Z,1.00
2023-03-10T12:54:31.848Z,1.00
2023-03-10T12:55:33.810Z,1.00
2023-03-10T12:56:42.007Z,1.00
2023-03-10T12:57:54.088Z,1.00
2023-03-10T12:59:06.478Z,1.00
2023-03-10T13:00:12.488Z,1.00
2023-03-10T13:01:21.069Z,1.00
2023-03-10T13:02:36.545Z,1.00
2023-03-10T13:03:45.113Z,1.00
2023-03-10T13:04:46.906Z,1.00
2023-03-10T13:06:15.199Z,1.00
2023-03-10T13:07:18.085Z,1.00
2023-03-10T13:08:24.765Z,1.00
2023-03-10T13:09:35.919Z,1.00
2023-03-10T13:10:38.529Z,1.00
2023-03-10T13:11:43.473Z,1.00
2023-03-10T13:12:48.677Z,1.00
2023-03-10T13:13:54.211Z,1.00
2023-03-10T13:14:58.859Z,1.00
2023-03-10T13:16:06.749Z,1.00
2023-03-10T13:17:26.509Z,1.00
2023-03-10T13:18:28.794Z,1.00
2023-03-10T13:19:33.221Z,1.00
2023-03-10T13:20:36.409Z,1.00
2023-03-10T13:21:39.327Z,1.00
2023-03-10T13:22:55.405Z,1.00
2023-03-10T13:24:02.489Z,1.00
2023-03-10T13:25:07.963Z,1.00
2023-03-10T13:26:16.383Z,1.00
2023-03-10T13:27:19.668Z,1.00
2023-03-10T13:28:27.034Z,1.00
2023-03-10T13:29:28.950Z,1.00
2023-03-10T13:30:30.738Z,1.00
2023-03-10T13:31:34.426Z,1.00
2023-03-10T13:32:36.420Z,1.00
2023-03-10T13:33:50.197Z,1.00
2023-03-10T13:34:54.225Z,1.00
2023-03-10T13:35:56.470Z,1.00
2023-03-10T13:37:06.701Z,1.00
2023-03-10T13:38:24.504Z,1.00
2023-03-10T13:39:28.134Z,1.00
2023-03-10T13:40:30.085Z,1.00
2023-03-10T13:41:37.354Z,1.00
2023-03-10T13:42:44.132Z,1.00
2023-03-10T13:43:51.295Z,1.00
2023-03-10T13:44:55.056Z,1.00
2023-03-10T13:45:59.182Z,1.00
2023-03-10T13:47:04.660Z,1.00
2023-03-10T13:48:06.963Z,1.00
2023-03-10T13:49:08.969Z,1.00
2023-03-10T13:50:15.357Z,1.00
2023-03-10T13:51:17.515Z,1.00
2023-03-10T13:52:22.523Z,1.00
2023-03-10T13:53:27.649Z,1.00
2023-03-10T13:54:34.477Z,1.00
2023-03-10T13:55:40.620Z,1.00
2023-03-10T13:56:43.757Z,1.00
2023-03-10T13:57:47.645Z,1.00
2023-03-10T13:58:52.601Z,1.00
2023-03-10T13:59:56.384Z,1.00
2023-03-10T14:01:00.788Z,1.00
2023-03-10T14:02:04.213Z,1.00
2023-03-10T14:03:08.173Z,1.00
2023-03-10T14:04:16.588Z,1.00
2023-03-10T14:05:39.889Z,1.00
2023-03-10T14:06:41.715Z,1.00
2023-03-10T14:07:58.988Z,1.00
2023-03-10T14:09:20.851Z,1.00
2023-03-10T14:10:22.882Z,1.00
2023-03-10T14:11:35.556Z,1.00
2023-03-10T14:12:53.311Z,1.00
2023-03-10T14:13:55.094Z,1.50
2023-03-10T14:15:12.430Z,2.00
2023-03-10T14:16:14.534Z,2.00
2023-03-10T14:17:35.168Z,2.00
2023-03-10T14:18:39.564Z,2.00
2023-03-10T14:19:41.355Z,2.00
2023-03-10T14:20:47.614Z,2.00
2023-03-10T14:22:00.982Z,2.00
2023-03-10T14:23:18.952Z,2.00
2023-03-10T14:24:20.812Z,2.00
2023-03-10T14:25:24.321Z,1.83
2023-03-10T14:26:26.187Z,1.00
2023-03-10T14:27:28.322Z,1.00